Time;durP1;ratioP1;P1;durP2;ratioP2;P2;SDS_P1;SDS_P2;PMS_P1;PMS_P2;Temp;Humidity;BMP_temperature;BMP_pressure;BME280_temperature;BME280_humidity;BME280_pressure;Samples;Min_cycle;Max_cycle;Signal;HPM_P1;HPM_P2
2022/03/06 00:00:50;;;;;;;0.10;0.10;;;0.90;94.40;;;;;;6282893;22;20345;-74
2022/03/06 00:03:16;;;;;;;0.50;0.50;;;0.90;94.50;;;;;;6283224;22;20011;-74
2022/03/06 00:05:41;;;;;;;0.73;0.73;;;0.90;94.40;;;;;;6274643;22;20008;-74
2022/03/06 00:08:10;;;;;;;0.70;0.70;;;0.90;94.30;;;;;;6272947;22;20010;-74
2022/03/06 00:10:36;;;;;;;0.52;0.52;;;0.90;94.30;;;;;;6283225;22;20014;-73
2022/03/06 00:13:02;;;;;;;0.10;0.10;;;0.90;94.20;;;;;;6284318;22;20011;-73
2022/03/06 00:15:28;;;;;;;0.63;0.63;;;0.90;94.00;;;;;;6284660;22;20008;-73
2022/03/06 00:17:55;;;;;;;0.10;0.10;;;0.90;94.30;;;;;;6274643;22;20007;-74
2022/03/06 00:20:21;;;;;;;0.17;0.17;;;0.90;94.00;;;;;;6284832;22;20449;-73
2022/03/06 00:22:48;;;;;;;2.95;1.98;;;0.90;93.90;;;;;;6282826;22;20413;-73
2022/03/06 00:25:13;;;;;;;1.50;1.33;;;0.90;93.80;;;;;;6284770;22;20043;-74
2022/03/06 00:27:39;;;;;;;3.90;1.85;;;0.90;93.80;;;;;;6273293;22;19999;-73
2022/03/06 00:30:07;;;;;;;0.10;0.10;;;0.90;93.80;;;;;;6284600;22;20065;-74
2022/03/06 00:32:33;;;;;;;0.73;0.73;;;1.00;93.70;;;;;;6272955;22;20003;-73
2022/03/06 00:34:58;;;;;;;0.13;0.13;;;1.00;93.70;;;;;;6284408;22;20014;-73
2022/03/06 00:37:25;;;;;;;6.93;1.40;;;1.00;93.70;;;;;;6284686;22;20038;-75
2022/03/06 00:39:51;;;;;;;0.10;0.10;;;1.00;93.70;;;;;;6247270;22;20015;-73
2022/03/06 00:42:16;;;;;;;1.17;1.08;;;1.00;93.70;;;;;;6273260;22;20018;-73
2022/03/06 00:44:42;;;;;;;0.10;0.10;;;1.00;93.80;;;;;;6272356;22;20008;-74
2022/03/06 00:47:08;;;;;;;7.60;1.75;;;0.90;93.80;;;;;;6276156;22;20015;-74
2022/03/06 00:49:34;;;;;;;5.18;1.75;;;0.90;93.90;;;;;;6284974;22;20019;-74
2022/03/06 00:52:00;;;;;;;0.10;0.10;;;0.90;93.80;;;;;;6274780;22;20034;-75
2022/03/06 00:54:26;;;;;;;0.15;0.15;;;0.90;93.70;;;;;;6286663;22;20672;-73
2022/03/06 00:56:52;;;;;;;0.20;0.20;;;0.90;93.70;;;;;;6286400;22;20039;-73
2022/03/06 00:59:18;;;;;;;1.17;1.17;;;0.90;93.90;;;;;;6285115;22;20082;-73
2022/03/06 01:01:44;;;;;;;1.05;1.05;;;0.90;93.80;;;;;;6284629;22;20375;-74
2022/03/06 01:04:09;;;;;;;0.40;0.40;;;1.00;93.80;;;;;;6286667;22;20008;-73
2022/03/06 01:06:36;;;;;;;0.88;0.85;;;1.00;93.60;;;;;;6284899;22;20011;-74
2022/03/06 01:09:04;;;;;;;0.30;0.30;;;1.00;93.70;;;;;;6274579;22;20007;-74
2022/03/06 01:11:30;;;;;;;0.10;0.10;;;1.00;93.80;;;;;;6284952;22;20332;-73
2022/03/06 01:13:56;;;;;;;0.10;0.10;;;1.00;93.80;;;;;;6259214;22;20082;-73
2022/03/06 01:16:22;;;;;;;1.02;0.95;;;1.10;93.70;;;;;;6276509;22;20019;-73
2022/03/06 01:18:47;;;;;;;0.95;0.95;;;1.00;93.80;;;;;;6286325;22;20000;-74
2022/03/06 01:21:14;;;;;;;0.10;0.10;;;1.00;93.80;;;;;;6286311;22;20004;-72
2022/03/06 01:23:39;;;;;;;0.20;0.20;;;1.00;93.80;;;;;;6286526;22;20007;-72
2022/03/06 01:26:05;;;;;;;0.10;0.10;;;1.00;93.80;;;;;;6284769;22;20007;-72
2022/03/06 01:28:31;;;;;;;0.28;0.28;;;1.10;93.70;;;;;;6286536;22;20014;-73
2022/03/06 01:30:57;;;;;;;0.55;0.55;;;1.10;93.60;;;;;;6286199;22;20428;-73
2022/03/06 01:33:23;;;;;;;0.10;0.10;;;1.20;93.70;;;;;;6274323;22;20053;-74
2022/03/06 01:35:49;;;;;;;0.13;0.13;;;1.20;93.60;;;;;;6286202;22;20259;-73
2022/03/06 01:38:15;;;;;;;0.10;0.10;;;1.20;93.80;;;;;;6284707;22;20007;-72
2022/03/06 01:40:41;;;;;;;0.22;0.22;;;1.20;93.80;;;;;;6276424;22;20015;-73
2022/03/06 01:43:07;;;;;;;0.47;0.28;;;1.20;93.80;;;;;;6276068;22;20094;-73
2022/03/06 01:45:32;;;;;;;0.90;0.90;;;1.20;93.90;;;;;;6276216;22;20004;-73
2022/03/06 01:47:59;;;;;;;0.20;0.20;;;1.20;93.80;;;;;;6284514;22;20004;-73
2022/03/06 01:50:32;;;;;;;0.20;0.20;;;1.20;93.80;;;;;;6248675;22;20076;-73
2022/03/06 01:53:01;;;;;;;0.57;0.57;;;1.20;93.80;;;;;;6286026;22;20007;-74
2022/03/06 01:55:28;;;;;;;0.10;0.10;;;1.20;93.70;;;;;;6286176;22;20016;-74
2022/03/06 01:57:58;;;;;;;0.88;0.88;;;1.30;93.80;;;;;;6283929;22;20071;-73
2022/03/06 02:00:49;;;;;;;0.10;0.10;;;1.30;93.50;;;;;;6284649;22;20007;-73
2022/03/06 02:03:19;;;;;;;;;;;1.30;93.40;;;;;;6285977;22;20012;-72
2022/03/06 02:05:45;;;;;;;0.43;0.43;;;1.30;93.40;;;;;;6284491;22;20313;-73
2022/03/06 02:08:11;;;;;;;0.10;0.10;;;1.30;93.50;;;;;;6274670;22;20011;-73
2022/03/06 02:10:37;;;;;;;0.10;0.10;;;1.30;93.50;;;;;;6284597;22;20007;-73
2022/03/06 02:13:04;;;;;;;0.10;0.10;;;1.40;93.40;;;;;;6284413;22;20393;-73
2022/03/06 02:15:31;;;;;;;0.30;0.30;;;1.30;93.70;;;;;;6285844;22;20016;-73
2022/03/06 02:17:57;;;;;;;2.33;2.17;;;1.30;93.40;;;;;;6285698;22;20008;-73
2022/03/06 02:20:26;;;;;;;3.75;2.58;;;1.30;93.30;;;;;;6285835;22;20440;-74
2022/03/06 02:22:55;;;;;;;0.47;0.47;;;1.30;93.30;;;;;;6284316;22;20011;-73
2022/03/06 02:25:23;;;;;;;1.10;1.10;;;1.30;93.30;;;;;;6285972;22;20011;-73
2022/03/06 02:27:52;;;;;;;1.25;1.20;;;1.30;93.30;;;;;;6274135;22;20058;-72
2022/03/06 02:30:23;;;;;;;0.93;0.85;;;1.30;93.40;;;;;;6284530;22;20476;-73
2022/03/06 02:32:51;;;;;;;0.38;0.38;;;1.40;93.30;;;;;;6275842;22;20096;-73
2022/03/06 02:35:18;;;;;;;0.10;0.10;;;1.40;93.20;;;;;;6284409;22;20019;-74
2022/03/06 02:37:46;;;;;;;0.10;0.10;;;1.40;93.10;;;;;;6285802;22;20392;-73
2022/03/06 02:40:14;;;;;;;0.22;0.22;;;1.50;93.20;;;;;;6275737;22;20000;-73
2022/03/06 02:42:43;;;;;;;0.38;0.38;;;1.50;93.10;;;;;;6274171;22;20022;-74
2022/03/06 02:45:20;;;;;;;0.43;0.43;;;1.50;93.20;;;;;;6284042;22;20061;-73
2022/03/06 02:47:47;;;;;;;0.30;0.30;;;1.50;93.20;;;;;;6285830;22;20086;-74
2022/03/06 02:50:16;;;;;;;0.10;0.10;;;1.40;93.40;;;;;;6275417;22;20605;-73
2022/03/06 02:52:43;;;;;;;0.10;0.10;;;1.40;93.40;;;;;;6275528;22;20015;-75
2022/03/06 02:55:11;;;;;;;0.38;0.38;;;1.50;93.50;;;;;;6274095;22;20022;-73
2022/03/06 02:57:38;;;;;;;0.10;0.10;;;1.50;93.40;;;;;;6284311;22;20459;-74
2022/03/06 03:00:08;;;;;;;0.10;0.10;;;1.40;93.50;;;;;;6284064;22;20507;-72
2022/03/06 03:02:34;;;;;;;2.03;1.92;;;1.40;93.60;;;;;;6283869;22;20333;-73
2022/03/06 03:05:01;;;;;;;0.10;0.10;;;1.50;93.60;;;;;;6275580;22;20003;-72
2022/03/06 03:07:26;;;;;;;0.38;0.38;;;1.50;93.40;;;;;;6284201;22;20008;-73
2022/03/06 03:09:52;;;;;;;0.45;0.45;;;1.60;93.40;;;;;;6285197;22;20016;-73
2022/03/06 03:12:18;;;;;;;5.72;1.95;;;1.60;93.60;;;;;;6275500;22;20000;-73
2022/03/06 03:14:44;;;;;;;0.10;0.10;;;1.60;93.40;;;;;;6283845;22;20012;-73
2022/03/06 03:17:10;;;;;;;0.25;0.25;;;1.60;93.50;;;;;;6273938;22;20336;-74
2022/03/06 03:19:36;;;;;;;0.10;0.10;;;1.60;93.60;;;;;;6274010;22;20375;-74
2022/03/06 03:22:01;;;;;;;0.63;0.57;;;1.60;93.40;;;;;;6284961;22;20011;-74
2022/03/06 03:24:27;;;;;;;0.13;0.13;;;1.70;93.50;;;;;;6285499;22;20071;-74
2022/03/06 03:26:53;;;;;;;0.10;0.10;;;1.70;93.60;;;;;;6285223;22;20008;-74
2022/03/06 03:29:19;;;;;;;0.30;0.30;;;1.70;93.50;;;;;;6285364;22;20053;-73
2022/03/06 03:31:45;;;;;;;0.85;0.85;;;1.80;93.40;;;;;;6275509;22;20011;-74
2022/03/06 03:34:11;;;;;;;0.95;0.95;;;1.80;93.50;;;;;;6275138;22;20016;-74
2022/03/06 03:36:37;;;;;;;0.73;0.73;;;1.70;93.50;;;;;;6274011;22;20370;-74
2022/03/06 03:39:04;;;;;;;4.05;1.65;;;1.70;93.70;;;;;;6275233;22;20084;-73
2022/03/06 03:41:29;;;;;;;0.03;0.03;;;1.60;94.00;;;;;;6247956;22;20015;-72
2022/03/06 03:43:55;;;;;;;0.10;0.10;;;1.70;93.80;;;;;;6283311;22;20465;-73
2022/03/06 03:46:21;;;;;;;0.20;0.20;;;1.70;93.90;;;;;;6248174;22;20004;-74
2022/03/06 03:48:47;;;;;;;0.73;0.32;;;1.60;94.00;;;;;;6285341;22;20004;-73
2022/03/06 03:51:13;;;;;;;0.30;0.30;;;1.50;94.10;;;;;;6274646;22;20542;-73
2022/03/06 03:53:39;;;;;;;0.22;0.22;;;1.50;94.30;;;;;;6275129;22;20023;-73
2022/03/06 03:56:05;;;;;;;0.77;0.77;;;1.50;94.20;;;;;;6273177;22;20007;-74
2022/03/06 03:58:32;;;;;;;0.10;0.10;;;1.50;94.20;;;;;;6283364;22;20007;-73
2022/03/06 04:00:58;;;;;;;0.10;0.10;;;1.50;94.40;;;;;;6283570;22;20115;-73
2022/03/06 04:03:24;;;;;;;0.35;0.35;;;1.50;94.40;;;;;;6283585;22;20446;-73
2022/03/06 04:05:50;;;;;;;0.20;0.20;;;1.60;94.50;;;;;;6283403;22;20017;-73
2022/03/06 04:08:17;;;;;;;0.10;0.10;;;1.60;94.50;;;;;;6247865;22;20014;-74
2022/03/06 04:10:42;;;;;;;2.20;0.95;;;1.60;94.60;;;;;;6273085;22;20007;-73
2022/03/06 04:13:08;;;;;;;0.00;0.00;;;1.60;94.60;;;;;;6283532;22;20490;-73
2022/03/06 04:15:34;;;;;;;0.28;0.28;;;1.60;94.70;;;;;;6274987;22;20015;-74
2022/03/06 04:18:00;;;;;;;0.10;0.10;;;1.60;94.60;;;;;;6284870;22;20465;-74
2022/03/06 04:20:26;;;;;;;0.10;0.10;;;1.50;94.60;;;;;;6274731;22;20008;-74
2022/03/06 04:22:52;;;;;;;0.22;0.22;;;1.60;94.70;;;;;;6283471;22;20004;-74
2022/03/06 04:25:18;;;;;;;4.35;2.13;;;1.60;94.70;;;;;;6273451;22;20012;-74
2022/03/06 04:27:43;;;;;;;0.52;0.52;;;1.70;94.60;;;;;;6285177;22;20035;-74
2022/03/06 04:30:10;;;;;;;0.10;0.10;;;1.80;94.30;;;;;;6283292;22;20054;-74
2022/03/06 04:32:37;;;;;;;0.03;0.03;;;1.80;94.30;;;;;;6273023;22;20509;-74
2022/03/06 04:35:05;;;;;;;0.10;0.10;;;1.80;94.30;;;;;;6284870;22;20118;-74
2022/03/06 04:37:30;;;;;;;0.35;0.35;;;1.80;94.30;;;;;;6283192;22;20029;-74
2022/03/06 04:39:56;;;;;;;0.13;0.13;;;1.90;94.30;;;;;;6282921;22;20488;-73
2022/03/06 04:42:22;;;;;;;0.10;0.10;;;1.90;94.30;;;;;;6273943;22;20049;-74
2022/03/06 04:44:48;;;;;;;0.20;0.20;;;1.90;94.30;;;;;;6284365;22;20622;-74
2022/03/06 04:47:14;;;;;;;1.15;1.00;;;1.90;94.40;;;;;;6274432;22;20007;-74
2022/03/06 04:49:40;;;;;;;1.63;1.48;;;1.90;94.50;;;;;;6284484;22;20046;-74
2022/03/06 04:52:06;;;;;;;0.10;0.10;;;1.80;94.60;;;;;;6282829;22;20310;-73
2022/03/06 04:54:32;;;;;;;0.57;0.57;;;1.80;94.70;;;;;;6282609;22;20499;-73
2022/03/06 04:56:58;;;;;;;1.10;1.00;;;1.80;94.70;;;;;;6284176;22;20011;-73
2022/03/06 04:59:24;;;;;;;0.55;0.55;;;1.80;94.70;;;;;;6282920;22;20000;-72
2022/03/06 05:01:49;;;;;;;0.63;0.57;;;1.90;94.80;;;;;;6284719;22;20448;-72
2022/03/06 05:04:15;;;;;;;0.10;0.10;;;1.90;94.70;;;;;;6274821;22;20039;-73
2022/03/06 05:06:41;;;;;;;4.20;1.27;;;1.90;94.80;;;;;;6284926;22;20084;-73
2022/03/06 05:09:06;;;;;;;0.28;0.28;;;1.90;94.70;;;;;;6284731;22;20012;-72
2022/03/06 05:11:33;;;;;;;0.10;0.10;;;1.90;94.70;;;;;;6284891;22;20110;-73
2022/03/06 05:13:59;;;;;;;0.10;0.10;;;1.90;94.80;;;;;;6284707;22;20082;-73
2022/03/06 05:16:25;;;;;;;0.00;0.00;;;1.80;94.90;;;;;;6283252;22;20031;-73
2022/03/06 05:18:51;;;;;;;7.53;0.57;;;1.80;95.10;;;;;;6247379;22;20077;-72
2022/03/06 05:21:16;;;;;;;0.13;0.13;;;1.80;95.10;;;;;;6274798;22;20008;-73
2022/03/06 05:23:42;;;;;;;0.52;0.52;;;1.80;95.00;;;;;;6283196;22;20420;-73
2022/03/06 05:26:08;;;;;;;0.10;0.10;;;1.80;95.00;;;;;;6274568;22;20019;-73
2022/03/06 05:28:34;;;;;;;0.45;0.45;;;1.90;95.10;;;;;;6284935;22;20034;-73
2022/03/06 05:30:59;;;;;;;0.20;0.20;;;1.80;95.10;;;;;;6257409;22;20004;-73
2022/03/06 05:33:25;;;;;;;0.20;0.20;;;1.80;95.20;;;;;;6286401;22;20003;-72
2022/03/06 05:35:51;;;;;;;0.13;0.13;;;1.70;95.40;;;;;;6286426;22;20047;-73
2022/03/06 05:38:17;;;;;;;1.02;1.02;;;1.70;95.50;;;;;;6286156;22;20091;-73
2022/03/06 05:40:43;;;;;;;1.55;1.45;;;1.70;95.60;;;;;;6276461;22;20015;-73
2022/03/06 05:43:08;;;;;;;0.08;0.08;;;1.70;95.80;;;;;;6286371;22;20349;-73
2022/03/06 05:45:34;;;;;;;0.00;0.00;;;1.60;95.80;;;;;;6286507;22;20433;-73
2022/03/06 05:48:00;;;;;;;0.32;0.32;;;1.60;95.90;;;;;;6276486;22;20547;-72
2022/03/06 05:50:26;;;;;;;0.10;0.10;;;1.70;95.90;;;;;;6274639;22;20015;-72
2022/03/06 05:52:52;;;;;;;0.10;0.10;;;1.60;96.30;;;;;;6276358;22;20325;-72
2022/03/06 05:55:17;;;;;;;1.58;0.88;;;1.60;96.10;;;;;;6276122;22;20019;-73
2022/03/06 05:57:44;;;;;;;0.10;0.10;;;1.60;96.20;;;;;;6286338;22;20500;-72
2022/03/06 06:00:12;;;;;;;0.20;0.20;;;1.60;96.30;;;;;;6274358;22;20502;-73
2022/03/06 06:02:38;;;;;;;0.10;0.10;;;1.70;96.30;;;;;;6284164;22;20311;-72
2022/03/06 06:05:07;;;;;;;0.75;0.68;;;1.70;96.40;;;;;;6276125;22;20011;-74
2022/03/06 06:07:33;;;;;;;0.10;0.10;;;1.70;96.40;;;;;;6274678;22;20015;-73
2022/03/06 06:09:59;;;;;;;0.57;0.52;;;1.70;96.40;;;;;;6274553;22;20012;-73
2022/03/06 06:12:26;;;;;;;0.50;0.50;;;1.80;96.40;;;;;;6286071;22;20038;-70
2022/03/06 06:14:53;;;;;;;1.52;1.15;;;1.80;96.50;;;;;;6274667;22;20004;-69
2022/03/06 06:17:19;;;;;;;0.20;0.20;;;1.70;96.80;;;;;;6285819;22;20445;-69
2022/03/06 06:19:45;;;;;;;0.75;0.75;;;1.90;96.40;;;;;;6286093;22;20524;-84
2022/03/06 06:22:10;;;;;;;0.80;0.80;;;1.90;96.40;;;;;;6274547;22;20430;-75
2022/03/06 06:24:36;;;;;;;0.52;0.52;;;1.90;96.40;;;;;;6274283;22;20000;-73
2022/03/06 06:27:03;;;;;;;0.00;0.00;;;1.90;96.40;;;;;;6258794;22;20054;-83
2022/03/06 06:29:29;;;;;;;0.82;0.82;;;1.90;96.50;;;;;;6286134;22;20014;-76
2022/03/06 06:31:55;;;;;;;0.10;0.10;;;1.90;96.50;;;;;;6284214;22;20067;-75
2022/03/06 06:34:20;;;;;;;0.00;0.00;;;1.90;96.40;;;;;;6274285;22;20657;-74
2022/03/06 06:36:47;;;;;;;0.73;0.73;;;2.00;96.50;;;;;;6285846;22;20065;-76
2022/03/06 06:39:13;;;;;;;0.00;0.00;;;2.00;96.60;;;;;;6285547;22;20008;-74
2022/03/06 06:41:41;;;;;;;0.52;0.52;;;2.00;96.70;;;;;;6285541;22;20065;-73
2022/03/06 06:44:08;;;;;;;0.10;0.10;;;2.00;96.80;;;;;;6283623;22;20011;-74
2022/03/06 06:46:34;;;;;;;0.10;0.10;;;2.00;96.80;;;;;;6285481;22;20012;-77
2022/03/06 06:49:03;;;;;;;1.95;0.85;;;2.00;96.80;;;;;;6258259;22;19999;-75
2022/03/06 06:51:29;;;;;;;0.10;0.10;;;2.00;96.90;;;;;;6283656;22;20022;-74
2022/03/06 06:53:56;;;;;;;0.10;0.10;;;2.10;97.00;;;;;;6273969;22;20010;-72
2022/03/06 06:56:21;;;;;;;1.45;1.23;;;2.10;96.80;;;;;;6273646;22;20011;-80
2022/03/06 06:58:47;;;;;;;0.30;0.30;;;2.20;96.80;;;;;;6285372;22;20027;-75
2022/03/06 07:01:17;;;;;;;0.10;0.10;;;2.20;96.70;;;;;;6275247;22;20450;-77
2022/03/06 07:03:44;;;;;;;;;;;2.20;96.70;;;;;;6274259;22;20076;-85
2022/03/06 07:06:10;;;;;;;0.90;0.90;;;2.30;96.70;;;;;;6274824;22;20209;-80
2022/03/06 07:08:36;;;;;;;0.95;0.75;;;2.30;96.70;;;;;;6285320;22;20008;-79
2022/03/06 07:11:02;;;;;;;0.75;0.75;;;2.50;96.90;;;;;;6285107;22;20438;-73
2022/03/06 07:13:28;;;;;;;0.15;0.15;;;2.50;96.30;;;;;;6275155;22;20007;-75
2022/03/06 07:15:53;;;;;;;0.10;0.10;;;2.50;96.00;;;;;;6275231;22;20011;-77
2022/03/06 07:18:19;;;;;;;0.35;0.35;;;2.60;96.20;;;;;;6285119;22;20058;-77
2022/03/06 07:20:45;;;;;;;0.10;0.10;;;2.70;96.30;;;;;;6285187;22;20412;-79
2022/03/06 07:23:11;;;;;;;0.47;0.47;;;2.70;97.10;;;;;;6275050;22;20011;-76
2022/03/06 07:25:37;;;;;;;0.95;0.95;;;2.70;95.80;;;;;;6283684;22;20004;-79
2022/03/06 07:28:04;;;;;;;0.50;0.50;;;2.70;95.60;;;;;;6283383;22;20333;-70
2022/03/06 07:30:29;;;;;;;0.10;0.10;;;2.90;95.60;;;;;;6283560;22;20096;-75
2022/03/06 07:32:55;;;;;;;0.20;0.20;;;3.00;96.70;;;;;;6273649;22;20348;-73
2022/03/06 07:35:22;;;;;;;3.60;0.93;;;3.10;95.30;;;;;;6283236;22;20011;-70
2022/03/06 07:37:48;;;;;;;0.25;0.25;;;3.10;95.20;;;;;;6275037;22;20130;-70
2022/03/06 07:40:19;;;;;;;4.47;1.33;;;3.10;94.70;;;;;;6274961;22;20011;-74
2022/03/06 07:42:45;;;;;;;0.63;0.63;;;3.20;95.00;;;;;;6275239;22;20009;-76
2022/03/06 07:45:11;;;;;;;0.10;0.10;;;3.30;94.50;;;;;;6273052;22;20471;-77
2022/03/06 07:47:38;;;;;;;0.30;0.30;;;3.30;94.30;;;;;;6283930;22;20007;-81
2022/03/06 07:50:07;;;;;;;0.03;0.03;;;3.30;94.10;;;;;;6283413;22;20011;-80
2022/03/06 07:52:34;;;;;;;0.38;0.38;;;3.50;93.90;;;;;;6273439;22;20014;-81
2022/03/06 07:55:00;;;;;;;1.23;1.13;;;3.50;93.40;;;;;;6284754;22;20016;-80
2022/03/06 07:57:26;;;;;;;0.40;0.40;;;3.60;93.20;;;;;;6274965;22;20065;-80
2022/03/06 07:59:52;;;;;;;0.00;0.00;;;3.60;94.30;;;;;;6272177;22;20004;-79
2022/03/06 08:02:18;;;;;;;1.75;1.65;;;4.20;99.90;;;;;;6284844;22;20043;-70
2022/03/06 08:04:43;;;;;;;2.90;2.05;;;4.20;99.20;;;;;;6274959;22;20008;-76
2022/03/06 08:07:09;;;;;;;0.00;0.00;;;4.10;93.20;;;;;;6274673;22;20564;-68
2022/03/06 08:09:35;;;;;;;0.00;0.00;;;4.10;92.60;;;;;;6284609;22;20062;-73
2022/03/06 08:12:01;;;;;;;5.93;1.08;;;4.20;92.70;;;;;;6274260;22;20012;-71
2022/03/06 08:14:28;;;;;;;0.22;0.22;;;4.20;92.20;;;;;;6274532;22;20364;-70
2022/03/06 08:16:54;;;;;;;0.25;0.25;;;4.30;92.20;;;;;;6284588;22;20356;-78
2022/03/06 08:19:20;;;;;;;0.57;0.55;;;4.10;92.20;;;;;;6274684;22;20287;-74
2022/03/06 08:21:48;;;;;;;0.00;0.00;;;4.20;91.90;;;;;;6284667;22;20136;-75
2022/03/06 08:24:14;;;;;;;0.50;0.50;;;4.30;91.70;;;;;;6284481;22;20008;-73
2022/03/06 08:26:40;;;;;;;0.10;0.10;;;4.40;91.70;;;;;;6284902;22;20448;-77
2022/03/06 08:29:06;;;;;;;0.00;0.00;;;4.50;91.50;;;;;;6274588;22;20088;-77
2022/03/06 08:31:32;;;;;;;13.70;2.28;;;4.50;90.90;;;;;;6284761;22;20012;-72
2022/03/06 08:33:58;;;;;;;0.68;0.43;;;4.60;90.50;;;;;;6284776;22;20014;-76
2022/03/06 08:36:24;;;;;;;0.15;0.15;;;4.60;90.70;;;;;;6284553;22;20022;-76
2022/03/06 08:38:50;;;;;;;1.13;1.13;;;4.70;90.40;;;;;;6274518;22;20007;-81
2022/03/06 08:41:16;;;;;;;0.25;0.25;;;4.80;89.90;;;;;;6272957;22;20015;-73
2022/03/06 08:43:42;;;;;;;7.88;3.10;;;4.80;90.00;;;;;;6284695;22;20451;-71
2022/03/06 08:46:08;;;;;;;3.05;1.30;;;5.00;90.10;;;;;;6284307;22;20014;-75
2022/03/06 08:48:36;;;;;;;0.10;0.10;;;5.10;87.90;;;;;;6284458;22;20399;-68
2022/03/06 08:51:04;;;;;;;0.65;0.65;;;5.10;87.70;;;;;;6283002;22;20018;-69
2022/03/06 08:53:32;;;;;;;0.10;0.10;;;5.20;86.30;;;;;;6284506;22;20015;-69
2022/03/06 08:55:59;;;;;;;0.00;0.00;;;5.30;84.80;;;;;;6247902;22;20064;-72
2022/03/06 08:58:25;;;;;;;0.00;0.00;;;5.40;83.50;;;;;;6284301;22;20464;-70
2022/03/06 09:00:50;;;;;;;0.63;0.63;;;5.50;82.70;;;;;;6247117;22;20093;-67
2022/03/06 09:03:16;;;;;;;0.10;0.10;;;5.60;80.90;;;;;;6284286;22;20008;-79
2022/03/06 09:05:42;;;;;;;0.20;0.20;;;5.70;81.20;;;;;;6274571;22;20074;-77
2022/03/06 09:08:11;;;;;;;1.08;1.08;;;5.80;79.70;;;;;;6284260;22;20011;-78
2022/03/06 09:10:39;;;;;;;0.05;0.05;;;5.90;79.80;;;;;;6284542;22;20007;-77
2022/03/06 09:13:07;;;;;;;0.52;0.17;;;5.80;78.70;;;;;;6284718;22;20014;-78
2022/03/06 09:15:33;;;;;;;0.10;0.10;;;5.90;79.00;;;;;;6276512;22;20061;-79
2022/03/06 09:18:02;;;;;;;0.35;0.35;;;6.00;78.70;;;;;;6286344;22;20007;-77
2022/03/06 09:20:28;;;;;;;0.77;0.77;;;6.00;78.50;;;;;;6286338;22;20016;-79
2022/03/06 09:22:54;;;;;;;0.65;0.65;;;6.20;77.60;;;;;;6286281;22;20084;-79
2022/03/06 09:25:20;;;;;;;1.08;0.65;;;6.30;76.30;;;;;;6286494;22;20077;-79
2022/03/06 09:27:46;;;;;;;0.00;0.00;;;6.30;74.70;;;;;;6276751;22;20372;-78
2022/03/06 09:30:13;;;;;;;0.20;0.20;;;6.10;73.80;;;;;;6286219;22;20011;-78
2022/03/06 09:32:39;;;;;;;0.35;0.35;;;6.10;74.60;;;;;;6286336;22;20095;-78
2022/03/06 09:35:07;;;;;;;0.00;0.00;;;6.20;74.00;;;;;;6286275;22;20094;-77
2022/03/06 09:37:35;;;;;;;3.20;0.47;;;6.10;74.30;;;;;;6284870;22;20023;-73
2022/03/06 09:40:04;;;;;;;0.32;0.32;;;6.10;74.20;;;;;;6276430;22;20087;-78
2022/03/06 09:42:29;;;;;;;1.27;1.00;;;6.00;73.30;;;;;;6274653;22;20011;-77
2022/03/06 09:44:55;;;;;;;0.03;0.03;;;5.80;72.10;;;;;;6276118;22;20012;-78
2022/03/06 09:47:24;;;;;;;4.90;2.83;;;6.00;72.60;;;;;;6286161;22;20046;-78
2022/03/06 09:49:50;;;;;;;0.77;0.30;;;6.20;72.50;;;;;;6274767;22;20062;-71
2022/03/06 09:52:16;;;;;;;5.45;1.48;;;7.30;75.60;;;;;;6284005;22;20023;-72
2022/03/06 09:54:42;;;;;;;0.28;0.28;;;7.40;73.20;;;;;;6275689;22;20057;-72
2022/03/06 09:57:08;;;;;;;0.55;0.55;;;7.40;69.30;;;;;;6284281;22;20102;-72
2022/03/06 09:59:34;;;;;;;0.30;0.30;;;7.50;67.30;;;;;;6284063;22;20016;-71
2022/03/06 10:02:02;;;;;;;0.10;0.10;;;7.80;68.50;;;;;;6286097;22;20329;-72
2022/03/06 10:04:31;;;;;;;0.00;0.00;;;7.80;69.10;;;;;;6273886;22;20333;-71
2022/03/06 10:07:09;;;;;;;0.10;0.10;;;8.80;65.30;;;;;;6274680;22;20035;-71
2022/03/06 10:09:50;;;;;;;0.88;0.88;;;9.60;64.30;;;;;;6275997;22;20039;-71
2022/03/06 10:12:29;;;;;;;;;;;9.30;62.20;;;;;;6286324;22;20004;-71
2022/03/06 10:14:57;;;;;;;0.00;0.00;;;8.90;63.60;;;;;;6259871;22;19907;-75
2022/03/06 10:17:29;;;;;;;0.20;0.20;;;8.40;62.80;;;;;;6285971;22;20011;-76
2022/03/06 10:20:05;;;;;;;0.20;0.20;;;8.60;62.70;;;;;;6284044;22;20000;-75
2022/03/06 10:22:35;;;;;;;0.10;0.10;;;8.60;62.20;;;;;;6259571;22;20428;-75
2022/03/06 10:25:06;;;;;;;0.17;0.17;;;8.40;61.80;;;;;;6273860;22;20460;-75
2022/03/06 10:27:54;;;;;;;0.00;0.00;;;8.20;61.50;;;;;;6284449;22;20075;-75
2022/03/06 10:30:39;;;;;;;0.30;0.30;;;8.40;62.70;;;;;;6274145;22;20007;-74
2022/03/06 10:33:11;;;;;;;0.13;0.13;;;8.30;62.30;;;;;;6284191;22;20031;-74
2022/03/06 10:35:43;;;;;;;1.80;1.70;;;7.60;62.90;;;;;;6284222;22;20313;-76
2022/03/06 10:38:27;;;;;;;1.90;1.75;;;8.00;66.70;;;;;;6284026;22;20087;-76
2022/03/06 10:40:55;;;;;;;0.00;0.00;;;8.10;63.30;;;;;;6290003;22;20016;-85
2022/03/06 10:43:27;;;;;;;7.18;0.63;;;8.30;63.30;;;;;;6276861;22;20008;-82
2022/03/06 10:46:07;;;;;;;0.40;0.40;;;8.40;62.40;;;;;;6284259;22;20012;-83
2022/03/06 10:48:34;;;;;;;0.30;0.30;;;8.50;63.00;;;;;;6276370;22;20098;-83
2022/03/06 10:51:02;;;;;;;0.10;0.10;;;8.70;61.80;;;;;;6285253;22;20087;-82
2022/03/06 10:53:28;;;;;;;4.78;0.85;;;8.80;62.20;;;;;;6283705;22;20022;-82
2022/03/06 10:55:55;;;;;;;2.00;1.88;;;8.90;60.70;;;;;;6283677;22;20085;-83
2022/03/06 10:58:21;;;;;;;0.05;0.05;;;8.40;63.30;;;;;;6285210;22;20007;-83
2022/03/06 11:00:48;;;;;;;0.63;0.63;;;7.20;62.20;;;;;;6284941;22;20046;-85
2022/03/06 11:03:18;;;;;;;0.80;0.80;;;6.80;62.70;;;;;;6285511;22;20015;-82
2022/03/06 11:05:46;;;;;;;0.82;0.82;;;6.90;63.60;;;;;;6274281;22;20069;-84
2022/03/06 11:08:18;;;;;;;0.40;0.40;;;6.50;63.20;;;;;;6285486;22;20008;-82
2022/03/06 11:10:44;;;;;;;0.00;0.00;;;7.20;64.70;;;;;;6285796;22;20015;-85
2022/03/06 11:13:13;;;;;;;0.10;0.10;;;7.60;64.10;;;;;;6285879;22;20452;-84
2022/03/06 11:15:41;;;;;;;0.00;0.00;;;8.00;62.40;;;;;;6285629;22;20019;-84
2022/03/06 11:18:07;;;;;;;0.20;0.20;;;8.30;62.40;;;;;;6285552;22;20006;-85
2022/03/06 11:20:36;;;;;;;0.05;0.05;;;8.50;62.10;;;;;;6283513;22;20015;-85
2022/03/06 11:23:40;;;;;;;1.98;1.70;;;8.70;61.60;;;;;;6285470;22;20433;-75
2022/03/06 11:26:09;;;;;;;0.30;0.28;;;9.10;59.70;;;;;;6285508;22;20031;-86
2022/03/06 11:29:10;;;;;;;0.10;0.10;;;9.20;62.30;;;;;;6275433;22;20014;-84
2022/03/06 11:31:52;;;;;;;0.35;0.35;;;9.70;59.00;;;;;;6273142;22;20008;-82
2022/03/06 11:34:31;;;;;;;0.17;0.17;;;9.70;59.10;;;;;;6258088;22;20099;-82
2022/03/06 11:37:02;;;;;;;0.00;0.00;;;10.10;58.40;;;;;;6285258;22;20019;-83
2022/03/06 11:39:31;;;;;;;0.00;0.00;;;10.50;58.90;;;;;;6274867;22;20437;-86
2022/03/06 11:42:03;;;;;;;0.90;0.38;;;11.40;56.80;;;;;;6275149;22;20094;-86
2022/03/06 11:44:36;;;;;;;0.00;0.00;;;12.10;54.10;;;;;;6285256;22;20011;-88
2022/03/06 11:47:12;;;;;;;0.52;0.40;;;12.00;54.80;;;;;;6285456;22;20065;-82
2022/03/06 11:49:38;;;;;;;0.80;0.63;;;10.50;55.40;;;;;;6274877;22;20054;-71
2022/03/06 11:52:29;;;;;;;0.20;0.20;;;11.20;56.10;;;;;;6274567;22;20011;-80
2022/03/06 11:54:57;;;;;;;0.77;0.77;;;11.00;54.30;;;;;;6268113;22;20441;-74
2022/03/06 11:57:37;;;;;;;0.03;0.03;;;10.20;55.50;;;;;;6272571;22;20105;-74
2022/03/06 12:00:19;;;;;;;0.00;0.00;;;10.10;56.40;;;;;;6284542;22;20108;-73
2022/03/06 12:02:50;;;;;;;0.10;0.10;;;11.30;55.80;;;;;;6272878;22;20072;-72
2022/03/06 12:05:19;;;;;;;0.10;0.10;;;11.40;54.90;;;;;;6257637;22;20470;-73
2022/03/06 12:07:50;;;;;;;0.55;0.55;;;11.10;52.90;;;;;;6284566;22;20008;-72
2022/03/06 12:10:18;;;;;;;0.20;0.20;;;9.90;56.20;;;;;;6272718;22;20034;-69
2022/03/06 12:12:57;;;;;;;0.03;0.03;;;9.80;56.10;;;;;;6284520;22;20015;-73
2022/03/06 12:15:28;;;;;;;0.50;0.50;;;10.20;55.80;;;;;;6282745;22;20061;-70
2022/03/06 12:18:04;;;;;;;0.00;0.00;;;10.20;55.80;;;;;;6274814;22;20087;-71
2022/03/06 12:20:42;;;;;;;1.23;1.17;;;10.60;55.50;;;;;;6247093;22;20038;-72
2022/03/06 12:23:25;;;;;;;0.35;0.22;;;10.30;56.50;;;;;;6274661;22;20008;-72
2022/03/06 12:25:57;;;;;;;0.28;0.25;;;10.90;55.00;;;;;;6284776;22;20011;-72
2022/03/06 12:28:36;;;;;;;0.40;0.40;;;12.10;54.20;;;;;;6284498;22;20007;-72
2022/03/06 12:31:51;;;;;;;0.13;0.13;;;12.50;52.50;;;;;;6249223;22;20012;-71
2022/03/06 12:34:43;;;;;;;0.20;0.20;;;12.70;51.80;;;;;;6264344;22;20015;-73
2022/03/06 12:37:08;;;;;;;1.13;1.02;;;12.40;51.50;;;;;;6242262;22;20026;-75
2022/03/06 12:39:36;;;;;;;1.00;0.55;;;13.50;50.80;;;;;;6273107;22;20003;-73
2022/03/06 12:42:03;;;;;;;0.30;0.30;;;12.90;49.60;;;;;;6275073;22;20007;-74
2022/03/06 12:44:34;;;;;;;0.43;0.30;;;13.00;50.70;;;;;;6286615;22;20015;-74
2022/03/06 12:47:00;;;;;;;5.53;1.35;;;11.30;51.20;;;;;;6251057;22;20147;-72
2022/03/06 12:49:26;;;;;;;3.40;0.30;;;11.90;52.70;;;;;;6276666;22;20042;-73
2022/03/06 12:51:53;;;;;;;0.52;0.32;;;12.70;52.80;;;;;;6275933;22;20023;-74
2022/03/06 12:54:24;;;;;;;0.45;0.45;;;10.90;54.00;;;;;;6276271;22;20019;-76
2022/03/06 12:56:57;;;;;;;3.92;1.63;;;10.70;55.20;;;;;;6284940;22;20377;-73
2022/03/06 12:59:25;;;;;;;0.45;0.45;;;12.10;52.70;;;;;;6284773;22;20000;-74
2022/03/06 13:01:52;;;;;;;0.38;0.38;;;11.70;52.60;;;;;;6286406;22;20011;-76